sensor_id;sensor_type;location;lat;lon;timestamp;P1;durP1;ratioP1;P2;durP2;ratioP2
37237;SDS011;23129;49.662;8.448;2023-03-15T00:00:22;2.13;;;0.88;;
37237;SDS011;23129;49.662;8.448;2023-03-15T00:02:51;3.92;;;0.63;;
37237;SDS011;23129;49.662;8.448;2023-03-15T00:05:19;13.32;;;1.45;;
37237;SDS011;23129;49.662;8.448;2023-03-15T00:07:49;2.53;;;0.75;;
37237;SDS011;23129;49.662;8.448;2023-03-15T00:10:18;1.73;;;0.82;;
37237;SDS011;23129;49.662;8.448;2023-03-15T00:12:47;1.20;;;0.40;;
37237;SDS011;23129;49.662;8.448;2023-03-15T00:15:15;1.80;;;0.63;;
37237;SDS011;23129;49.662;8.448;2023-03-15T00:17:44;1.23;;;0.50;;
37237;SDS011;23129;49.662;8.448;2023-03-15T00:20:13;1.20;;;0.60;;
37237;SDS011;23129;49.662;8.448;2023-03-15T00:22:42;1.73;;;0.70;;
37237;SDS011;23129;49.662;8.448;2023-03-15T00:25:13;3.08;;;0.88;;
37237;SDS011;23129;49.662;8.448;2023-03-15T00:27:41;8.52;;;1.40;;
37237;SDS011;23129;49.662;8.448;2023-03-15T00:30:10;8.63;;;1.38;;
37237;SDS011;23129;49.662;8.448;2023-03-15T00:32:39;9.38;;;1.17;;
37237;SDS011;23129;49.662;8.448;2023-03-15T00:35:09;0.88;;;0.70;;
37237;SDS011;23129;49.662;8.448;2023-03-15T00:37:43;3.25;;;0.80;;
37237;SDS011;23129;49.662;8.448;2023-03-15T00:40:13;3.63;;;0.93;;
37237;SDS011;23129;49.662;8.448;2023-03-15T00:42:42;2.05;;;0.80;;
37237;SDS011;23129;49.662;8.448;2023-03-15T00:45:15;5.03;;;0.82;;
37237;SDS011;23129;49.662;8.448;2023-03-15T00:47:47;6.30;;;0.82;;
37237;SDS011;23129;49.662;8.448;2023-03-15T00:50:15;4.35;;;0.82;;
37237;SDS011;23129;49.662;8.448;2023-03-15T00:52:44;1.55;;;0.60;;
37237;SDS011;23129;49.662;8.448;2023-03-15T00:55:15;1.63;;;0.85;;
37237;SDS011;23129;49.662;8.448;2023-03-15T00:57:46;4.80;;;1.23;;
37237;SDS011;23129;49.662;8.448;2023-03-15T01:00:16;1.85;;;1.25;;
37237;SDS011;23129;49.662;8.448;2023-03-15T01:02:49;5.03;;;0.90;;
37237;SDS011;23129;49.662;8.448;2023-03-15T01:05:18;2.00;;;0.98;;
37237;SDS011;23129;49.662;8.448;2023-03-15T01:07:47;4.28;;;1.45;;
37237;SDS011;23129;49.662;8.448;2023-03-15T01:10:18;0.77;;;0.77;;
37237;SDS011;23129;49.662;8.448;2023-03-15T01:12:46;6.10;;;1.30;;
37237;SDS011;23129;49.662;8.448;2023-03-15T01:15:15;9.60;;;2.05;;
37237;SDS011;23129;49.662;8.448;2023-03-15T01:17:43;3.85;;;2.30;;
37237;SDS011;23129;49.662;8.448;2023-03-15T01:20:12;5.65;;;2.15;;
37237;SDS011;23129;49.662;8.448;2023-03-15T01:22:41;2.67;;;1.70;;
37237;SDS011;23129;49.662;8.448;2023-03-15T01:25:12;1.55;;;1.40;;
37237;SDS011;23129;49.662;8.448;2023-03-15T01:27:44;8.18;;;1.10;;
37237;SDS011;23129;49.662;8.448;2023-03-15T01:30:12;2.38;;;1.30;;
37237;SDS011;23129;49.662;8.448;2023-03-15T01:32:41;2.28;;;0.95;;
37237;SDS011;23129;49.662;8.448;2023-03-15T01:35:09;3.15;;;0.70;;
37237;SDS011;23129;49.662;8.448;2023-03-15T01:37:38;1.52;;;0.80;;
37237;SDS011;23129;49.662;8.448;2023-03-15T01:40:08;2.13;;;0.80;;
37237;SDS011;23129;49.662;8.448;2023-03-15T01:46:03;3.75;;;1.02;;
37237;SDS011;23129;49.662;8.448;2023-03-15T01:48:43;3.97;;;0.50;;
37237;SDS011;23129;49.662;8.448;2023-03-15T01:51:21;4.00;;;1.17;;
37237;SDS011;23129;49.662;8.448;2023-03-15T01:53:55;1.25;;;0.75;;
37237;SDS011;23129;49.662;8.448;2023-03-15T01:56:30;4.13;;;0.80;;
37237;SDS011;23129;49.662;8.448;2023-03-15T01:59:04;11.52;;;1.35;;
37237;SDS011;23129;49.662;8.448;2023-03-15T02:06:44;5.85;;;0.95;;
37237;SDS011;23129;49.662;8.448;2023-03-15T02:09:14;3.58;;;0.80;;
37237;SDS011;23129;49.662;8.448;2023-03-15T02:11:46;2.90;;;1.23;;
37237;SDS011;23129;49.662;8.448;2023-03-15T02:14:17;1.70;;;0.90;;
37237;SDS011;23129;49.662;8.448;2023-03-15T02:16:47;1.33;;;1.08;;
37237;SDS011;23129;49.662;8.448;2023-03-15T02:19:22;1.15;;;0.82;;
37237;SDS011;23129;49.662;8.448;2023-03-15T02:22:07;4.03;;;1.38;;
37237;SDS011;23129;49.662;8.448;2023-03-15T02:24:51;2.45;;;1.02;;
37237;SDS011;23129;49.662;8.448;2023-03-15T02:27:28;5.60;;;1.42;;
37237;SDS011;23129;49.662;8.448;2023-03-15T02:29:59;6.28;;;1.63;;
37237;SDS011;23129;49.662;8.448;2023-03-15T02:32:29;3.10;;;1.10;;
37237;SDS011;23129;49.662;8.448;2023-03-15T02:34:58;11.18;;;1.88;;
37237;SDS011;23129;49.662;8.448;2023-03-15T02:37:28;4.55;;;1.50;;
37237;SDS011;23129;49.662;8.448;2023-03-15T02:39:57;1.02;;;0.93;;
37237;SDS011;23129;49.662;8.448;2023-03-15T02:42:26;2.38;;;1.50;;
37237;SDS011;23129;49.662;8.448;2023-03-15T02:44:56;1.63;;;1.27;;
37237;SDS011;23129;49.662;8.448;2023-03-15T02:47:26;5.53;;;1.95;;
37237;SDS011;23129;49.662;8.448;2023-03-15T02:49:59;1.25;;;1.10;;
37237;SDS011;23129;49.662;8.448;2023-03-15T02:52:27;0.82;;;0.80;;
37237;SDS011;23129;49.662;8.448;2023-03-15T02:54:56;5.88;;;1.38;;
37237;SDS011;23129;49.662;8.448;2023-03-15T02:57:25;3.22;;;1.30;;
37237;SDS011;23129;49.662;8.448;2023-03-15T02:59:56;3.22;;;1.45;;
37237;SDS011;23129;49.662;8.448;2023-03-15T03:02:25;3.78;;;1.48;;
37237;SDS011;23129;49.662;8.448;2023-03-15T03:04:54;4.97;;;1.30;;
37237;SDS011;23129;49.662;8.448;2023-03-15T03:07:22;2.20;;;0.93;;
37237;SDS011;23129;49.662;8.448;2023-03-15T03:09:57;1.13;;;0.82;;
37237;SDS011;23129;49.662;8.448;2023-03-15T03:12:26;4.20;;;1.30;;
37237;SDS011;23129;49.662;8.448;2023-03-15T03:14:56;6.85;;;1.65;;
37237;SDS011;23129;49.662;8.448;2023-03-15T03:17:24;2.60;;;1.33;;
37237;SDS011;23129;49.662;8.448;2023-03-15T03:19:53;1.23;;;1.13;;
37237;SDS011;23129;49.662;8.448;2023-03-15T03:22:29;2.75;;;1.27;;
37237;SDS011;23129;49.662;8.448;2023-03-15T03:24:59;6.70;;;1.60;;
37237;SDS011;23129;49.662;8.448;2023-03-15T03:27:27;2.60;;;1.30;;
37237;SDS011;23129;49.662;8.448;2023-03-15T03:29:59;3.00;;;1.70;;
37237;SDS011;23129;49.662;8.448;2023-03-15T03:32:28;3.45;;;1.13;;
37237;SDS011;23129;49.662;8.448;2023-03-15T03:34:57;4.68;;;1.45;;
37237;SDS011;23129;49.662;8.448;2023-03-15T03:37:25;1.70;;;1.10;;
37237;SDS011;23129;49.662;8.448;2023-03-15T03:40:03;3.08;;;1.67;;
37237;SDS011;23129;49.662;8.448;2023-03-15T03:42:34;3.70;;;1.05;;
37237;SDS011;23129;49.662;8.448;2023-03-15T03:45:05;8.52;;;1.80;;
37237;SDS011;23129;49.662;8.448;2023-03-15T03:47:40;3.70;;;0.95;;
37237;SDS011;23129;49.662;8.448;2023-03-15T03:50:09;6.38;;;1.38;;
37237;SDS011;23129;49.662;8.448;2023-03-15T03:52:38;1.50;;;1.25;;
37237;SDS011;23129;49.662;8.448;2023-03-15T03:55:17;2.65;;;1.42;;
37237;SDS011;23129;49.662;8.448;2023-03-15T03:57:50;2.55;;;1.33;;
37237;SDS011;23129;49.662;8.448;2023-03-15T04:00:35;1.48;;;1.23;;
37237;SDS011;23129;49.662;8.448;2023-03-15T04:03:04;1.75;;;1.20;;
37237;SDS011;23129;49.662;8.448;2023-03-15T04:05:35;7.47;;;1.48;;
37237;SDS011;23129;49.662;8.448;2023-03-15T04:08:04;2.03;;;1.05;;
37237;SDS011;23129;49.662;8.448;2023-03-15T04:10:37;3.80;;;1.55;;
37237;SDS011;23129;49.662;8.448;2023-03-15T04:13:06;1.48;;;0.95;;
37237;SDS011;23129;49.662;8.448;2023-03-15T04:15:36;8.15;;;1.17;;
37237;SDS011;23129;49.662;8.448;2023-03-15T04:18:05;3.72;;;1.50;;
37237;SDS011;23129;49.662;8.448;2023-03-15T04:20:38;3.28;;;1.80;;
37237;SDS011;23129;49.662;8.448;2023-03-15T04:26:00;2.00;;;1.17;;
37237;SDS011;23129;49.662;8.448;2023-03-15T04:28:51;1.60;;;1.10;;
37237;SDS011;23129;49.662;8.448;2023-03-15T04:31:40;9.00;;;1.02;;
37237;SDS011;23129;49.662;8.448;2023-03-15T04:34:14;1.98;;;0.82;;
37237;SDS011;23129;49.662;8.448;2023-03-15T04:37:09;1.25;;;1.15;;
37237;SDS011;23129;49.662;8.448;2023-03-15T04:40:01;2.35;;;1.00;;
37237;SDS011;23129;49.662;8.448;2023-03-15T04:42:51;3.20;;;0.93;;
37237;SDS011;23129;49.662;8.448;2023-03-15T04:45:52;4.60;;;1.38;;
37237;SDS011;23129;49.662;8.448;2023-03-15T04:48:22;4.97;;;1.52;;
37237;SDS011;23129;49.662;8.448;2023-03-15T04:51:04;5.57;;;1.40;;
37237;SDS011;23129;49.662;8.448;2023-03-15T04:53:56;4.95;;;1.52;;
37237;SDS011;23129;49.662;8.448;2023-03-15T04:56:36;4.72;;;1.58;;
37237;SDS011;23129;49.662;8.448;2023-03-15T04:59:25;0.73;;;0.70;;
37237;SDS011;23129;49.662;8.448;2023-03-15T05:02:12;1.67;;;1.35;;
37237;SDS011;23129;49.662;8.448;2023-03-15T05:05:00;1.80;;;1.15;;
37237;SDS011;23129;49.662;8.448;2023-03-15T05:07:52;3.17;;;1.65;;
37237;SDS011;23129;49.662;8.448;2023-03-15T05:10:33;5.50;;;2.20;;
37237;SDS011;23129;49.662;8.448;2023-03-15T05:13:21;2.58;;;2.00;;
37237;SDS011;23129;49.662;8.448;2023-03-15T05:16:04;10.77;;;3.28;;
37237;SDS011;23129;49.662;8.448;2023-03-15T05:18:56;5.13;;;1.88;;
37237;SDS011;23129;49.662;8.448;2023-03-15T05:21:29;8.35;;;1.67;;
37237;SDS011;23129;49.662;8.448;2023-03-15T05:24:09;2.10;;;1.63;;
37237;SDS011;23129;49.662;8.448;2023-03-15T05:27:07;4.35;;;1.70;;
37237;SDS011;23129;49.662;8.448;2023-03-15T05:30:03;10.50;;;2.08;;
37237;SDS011;23129;49.662;8.448;2023-03-15T05:32:57;11.30;;;2.70;;
37237;SDS011;23129;49.662;8.448;2023-03-15T05:36:02;6.35;;;1.20;;
37237;SDS011;23129;49.662;8.448;2023-03-15T05:38:55;3.47;;;1.20;;
37237;SDS011;23129;49.662;8.448;2023-03-15T05:41:38;4.22;;;1.73;;
37237;SDS011;23129;49.662;8.448;2023-03-15T05:44:27;4.63;;;1.50;;
37237;SDS011;23129;49.662;8.448;2023-03-15T05:47:19;2.70;;;1.50;;
37237;SDS011;23129;49.662;8.448;2023-03-15T05:50:12;8.30;;;3.60;;
37237;SDS011;23129;49.662;8.448;2023-03-15T05:52:52;1.20;;;0.80;;
37237;SDS011;23129;49.662;8.448;2023-03-15T05:55:44;4.85;;;2.08;;
37237;SDS011;23129;49.662;8.448;2023-03-15T05:58:48;5.82;;;2.13;;
37237;SDS011;23129;49.662;8.448;2023-03-15T06:01:51;4.13;;;1.70;;
37237;SDS011;23129;49.662;8.448;2023-03-15T06:04:27;4.00;;;1.70;;
37237;SDS011;23129;49.662;8.448;2023-03-15T06:06:57;6.43;;;2.50;;
37237;SDS011;23129;49.662;8.448;2023-03-15T06:09:26;1.08;;;1.08;;
37237;SDS011;23129;49.662;8.448;2023-03-15T06:11:56;5.00;;;2.22;;
37237;SDS011;23129;49.662;8.448;2023-03-15T06:14:25;13.57;;;3.13;;
37237;SDS011;23129;49.662;8.448;2023-03-15T06:16:57;11.63;;;1.77;;
37237;SDS011;23129;49.662;8.448;2023-03-15T06:19:27;6.93;;;2.65;;
37237;SDS011;23129;49.662;8.448;2023-03-15T06:21:55;14.75;;;2.17;;
37237;SDS011;23129;49.662;8.448;2023-03-15T06:24:29;2.92;;;1.20;;
37237;SDS011;23129;49.662;8.448;2023-03-15T06:27:00;15.23;;;2.28;;
37237;SDS011;23129;49.662;8.448;2023-03-15T06:29:28;5.00;;;3.20;;
37237;SDS011;23129;49.662;8.448;2023-03-15T06:31:57;10.80;;;3.60;;
37237;SDS011;23129;49.662;8.448;2023-03-15T06:34:26;3.08;;;2.78;;
37237;SDS011;23129;49.662;8.448;2023-03-15T06:36:55;11.77;;;3.08;;
37237;SDS011;23129;49.662;8.448;2023-03-15T06:39:24;3.70;;;2.33;;
37237;SDS011;23129;49.662;8.448;2023-03-15T06:41:52;13.65;;;2.40;;
37237;SDS011;23129;49.662;8.448;2023-03-15T06:44:27;8.77;;;2.15;;
37237;SDS011;23129;49.662;8.448;2023-03-15T06:47:00;9.55;;;2.40;;
37237;SDS011;23129;49.662;8.448;2023-03-15T06:49:29;8.30;;;2.75;;
37237;SDS011;23129;49.662;8.448;2023-03-15T06:51:59;2.35;;;2.05;;
37237;SDS011;23129;49.662;8.448;2023-03-15T06:54:28;3.17;;;1.95;;
37237;SDS011;23129;49.662;8.448;2023-03-15T06:56:57;7.53;;;3.05;;
37237;SDS011;23129;49.662;8.448;2023-03-15T06:59:27;5.53;;;2.42;;
37237;SDS011;23129;49.662;8.448;2023-03-15T07:01:55;11.88;;;2.60;;
37237;SDS011;23129;49.662;8.448;2023-03-15T07:04:24;8.13;;;2.17;;
37237;SDS011;23129;49.662;8.448;2023-03-15T07:06:52;8.88;;;2.47;;
37237;SDS011;23129;49.662;8.448;2023-03-15T07:09:21;5.95;;;2.53;;
37237;SDS011;23129;49.662;8.448;2023-03-15T07:11:50;14.13;;;3.30;;
37237;SDS011;23129;49.662;8.448;2023-03-15T07:14:18;13.65;;;3.78;;
37237;SDS011;23129;49.662;8.448;2023-03-15T07:16:48;6.30;;;3.08;;
37237;SDS011;23129;49.662;8.448;2023-03-15T07:19:17;15.60;;;4.47;;
37237;SDS011;23129;49.662;8.448;2023-03-15T07:21:45;8.85;;;3.33;;
37237;SDS011;23129;49.662;8.448;2023-03-15T07:24:14;4.13;;;2.75;;
37237;SDS011;23129;49.662;8.448;2023-03-15T07:26:42;7.93;;;2.83;;
37237;SDS011;23129;49.662;8.448;2023-03-15T07:29:11;4.50;;;2.33;;
37237;SDS011;23129;49.662;8.448;2023-03-15T07:31:39;5.55;;;3.40;;
37237;SDS011;23129;49.662;8.448;2023-03-15T07:34:09;5.72;;;3.42;;
37237;SDS011;23129;49.662;8.448;2023-03-15T07:36:37;5.30;;;2.53;;
37237;SDS011;23129;49.662;8.448;2023-03-15T07:39:06;11.10;;;3.65;;
37237;SDS011;23129;49.662;8.448;2023-03-15T07:41:35;7.88;;;2.88;;
37237;SDS011;23129;49.662;8.448;2023-03-15T07:44:12;1.25;;;0.95;;
37237;SDS011;23129;49.662;8.448;2023-03-15T07:46:41;5.53;;;4.05;;
37237;SDS011;23129;49.662;8.448;2023-03-15T07:49:11;15.32;;;4.13;;
37237;SDS011;23129;49.662;8.448;2023-03-15T07:51:39;9.05;;;4.15;;
37237;SDS011;23129;49.662;8.448;2023-03-15T07:54:08;8.35;;;4.20;;
37237;SDS011;23129;49.662;8.448;2023-03-15T07:56:37;6.90;;;4.07;;
37237;SDS011;23129;49.662;8.448;2023-03-15T07:59:06;9.95;;;4.35;;
37237;SDS011;23129;49.662;8.448;2023-03-15T08:01:35;8.75;;;4.15;;
37237;SDS011;23129;49.662;8.448;2023-03-15T08:04:03;13.05;;;5.20;;
37237;SDS011;23129;49.662;8.448;2023-03-15T08:06:33;13.25;;;6.32;;
37237;SDS011;23129;49.662;8.448;2023-03-15T08:09:02;7.15;;;4.63;;
37237;SDS011;23129;49.662;8.448;2023-03-15T08:11:31;8.15;;;3.55;;
37237;SDS011;23129;49.662;8.448;2023-03-15T08:14:01;10.00;;;4.50;;
37237;SDS011;23129;49.662;8.448;2023-03-15T08:16:30;8.07;;;5.05;;
37237;SDS011;23129;49.662;8.448;2023-03-15T08:18:58;9.93;;;5.07;;
37237;SDS011;23129;49.662;8.448;2023-03-15T08:21:27;6.15;;;3.83;;
37237;SDS011;23129;49.662;8.448;2023-03-15T08:24:00;14.07;;;5.30;;
37237;SDS011;23129;49.662;8.448;2023-03-15T08:26:28;11.95;;;4.95;;
37237;SDS011;23129;49.662;8.448;2023-03-15T08:28:57;11.55;;;4.82;;
37237;SDS011;23129;49.662;8.448;2023-03-15T08:31:25;9.68;;;4.60;;
37237;SDS011;23129;49.662;8.448;2023-03-15T08:33:54;11.13;;;3.83;;
37237;SDS011;23129;49.662;8.448;2023-03-15T08:36:22;10.52;;;4.07;;
37237;SDS011;23129;49.662;8.448;2023-03-15T08:38:51;10.98;;;4.65;;
37237;SDS011;23129;49.662;8.448;2023-03-15T08:41:20;10.43;;;3.72;;
37237;SDS011;23129;49.662;8.448;2023-03-15T08:43:49;14.13;;;4.57;;
37237;SDS011;23129;49.662;8.448;2023-03-15T08:46:17;10.35;;;4.55;;
37237;SDS011;23129;49.662;8.448;2023-03-15T08:48:47;13.65;;;5.15;;
37237;SDS011;23129;49.662;8.448;2023-03-15T08:51:15;6.97;;;3.85;;
37237;SDS011;23129;49.662;8.448;2023-03-15T08:53:45;12.40;;;4.35;;
37237;SDS011;23129;49.662;8.448;2023-03-15T08:56:13;10.05;;;4.60;;
37237;SDS011;23129;49.662;8.448;2023-03-15T08:58:43;7.05;;;4.57;;
37237;SDS011;23129;49.662;8.448;2023-03-15T09:01:12;20.40;;;6.07;;
37237;SDS011;23129;49.662;8.448;2023-03-15T09:03:41;7.68;;;4.10;;
37237;SDS011;23129;49.662;8.448;2023-03-15T09:06:09;6.45;;;2.85;;
37237;SDS011;23129;49.662;8.448;2023-03-15T09:08:38;9.40;;;4.13;;
37237;SDS011;23129;49.662;8.448;2023-03-15T09:11:07;6.38;;;3.28;;
37237;SDS011;23129;49.662;8.448;2023-03-15T09:13:36;10.13;;;3.72;;
37237;SDS011;23129;49.662;8.448;2023-03-15T09:16:06;9.63;;;2.80;;
37237;SDS011;23129;49.662;8.448;2023-03-15T09:18:34;2.20;;;2.00;;
37237;SDS011;23129;49.662;8.448;2023-03-15T09:21:03;7.82;;;3.00;;
37237;SDS011;23129;49.662;8.448;2023-03-15T09:23:33;3.42;;;2.63;;
37237;SDS011;23129;49.662;8.448;2023-03-15T09:26:01;3.53;;;1.95;;
37237;SDS011;23129;49.662;8.448;2023-03-15T09:28:30;4.72;;;2.20;;
37237;SDS011;23129;49.662;8.448;2023-03-15T09:30:58;3.00;;;2.03;;
37237;SDS011;23129;49.662;8.448;2023-03-15T09:33:34;7.80;;;3.25;;
37237;SDS011;23129;49.662;8.448;2023-03-15T09:36:02;3.40;;;2.58;;
37237;SDS011;23129;49.662;8.448;2023-03-15T09:38:31;3.78;;;3.03;;
37237;SDS011;23129;49.662;8.448;2023-03-15T09:41:00;7.18;;;3.30;;
37237;SDS011;23129;49.662;8.448;2023-03-15T09:43:41;6.25;;;3.05;;
37237;SDS011;23129;49.662;8.448;2023-03-15T09:46:28;6.28;;;3.17;;
37237;SDS011;23129;49.662;8.448;2023-03-15T09:49:02;4.15;;;3.67;;
37237;SDS011;23129;49.662;8.448;2023-03-15T09:51:40;4.70;;;2.72;;
37237;SDS011;23129;49.662;8.448;2023-03-15T09:54:17;8.18;;;3.58;;
37237;SDS011;23129;49.662;8.448;2023-03-15T09:56:52;14.40;;;3.67;;
37237;SDS011;23129;49.662;8.448;2023-03-15T09:59:25;10.40;;;3.83;;
37237;SDS011;23129;49.662;8.448;2023-03-15T10:01:59;8.07;;;3.40;;
37237;SDS011;23129;49.662;8.448;2023-03-15T10:04:45;8.60;;;3.88;;
37237;SDS011;23129;49.662;8.448;2023-03-15T10:07:16;5.07;;;3.58;;
37237;SDS011;23129;49.662;8.448;2023-03-15T10:09:45;6.88;;;3.70;;
37237;SDS011;23129;49.662;8.448;2023-03-15T10:12:14;8.40;;;4.75;;
37237;SDS011;23129;49.662;8.448;2023-03-15T10:14:56;7.40;;;4.85;;
37237;SDS011;23129;49.662;8.448;2023-03-15T10:17:43;7.25;;;4.18;;
37237;SDS011;23129;49.662;8.448;2023-03-15T10:20:24;11.00;;;5.32;;
37237;SDS011;23129;49.662;8.448;2023-03-15T10:22:56;10.23;;;4.95;;
37237;SDS011;23129;49.662;8.448;2023-03-15T10:25:29;7.47;;;4.90;;
37237;SDS011;23129;49.662;8.448;2023-03-15T10:27:59;7.15;;;5.18;;
37237;SDS011;23129;49.662;8.448;2023-03-15T10:30:32;15.82;;;6.57;;
37237;SDS011;23129;49.662;8.448;2023-03-15T10:33:02;11.18;;;7.13;;
37237;SDS011;23129;49.662;8.448;2023-03-15T10:35:43;8.48;;;5.88;;
37237;SDS011;23129;49.662;8.448;2023-03-15T10:38:13;14.20;;;5.97;;
37237;SDS011;23129;49.662;8.448;2023-03-15T10:40:42;7.65;;;5.68;;
37237;SDS011;23129;49.662;8.448;2023-03-15T10:43:16;9.90;;;5.57;;
37237;SDS011;23129;49.662;8.448;2023-03-15T10:45:57;8.13;;;5.75;;
37237;SDS011;23129;49.662;8.448;2023-03-15T10:48:28;11.50;;;5.47;;
37237;SDS011;23129;49.662;8.448;2023-03-15T10:51:01;11.55;;;5.88;;
37237;SDS011;23129;49.662;8.448;2023-03-15T10:53:33;16.58;;;6.53;;
37237;SDS011;23129;49.662;8.448;2023-03-15T10:56:04;8.68;;;5.60;;
37237;SDS011;23129;49.662;8.448;2023-03-15T10:58:40;9.85;;;5.47;;
37237;SDS011;23129;49.662;8.448;2023-03-15T11:04:11;9.75;;;5.75;;
37237;SDS011;23129;49.662;8.448;2023-03-15T11:06:46;9.95;;;5.57;;
37237;SDS011;23129;49.662;8.448;2023-03-15T11:09:16;8.77;;;3.83;;
37237;SDS011;23129;49.662;8.448;2023-03-15T11:11:48;7.55;;;3.95;;
37237;SDS011;23129;49.662;8.448;2023-03-15T11:14:24;5.68;;;4.40;;
37237;SDS011;23129;49.662;8.448;2023-03-15T11:16:59;5.68;;;3.78;;
37237;SDS011;23129;49.662;8.448;2023-03-15T11:19:31;5.63;;;4.05;;
37237;SDS011;23129;49.662;8.448;2023-03-15T11:22:04;4.78;;;3.85;;
37237;SDS011;23129;49.662;8.448;2023-03-15T11:24:37;7.75;;;3.97;;
37237;SDS011;23129;49.662;8.448;2023-03-15T11:27:08;5.60;;;4.07;;
37237;SDS011;23129;49.662;8.448;2023-03-15T11:29:41;4.50;;;3.87;;
37237;SDS011;23129;49.662;8.448;2023-03-15T11:32:14;6.57;;;3.47;;
37237;SDS011;23129;49.662;8.448;2023-03-15T11:34:47;4.47;;;3.55;;
37237;SDS011;23129;49.662;8.448;2023-03-15T11:37:27;6.60;;;4.20;;
37237;SDS011;23129;49.662;8.448;2023-03-15T11:40:02;6.00;;;4.40;;
37237;SDS011;23129;49.662;8.448;2023-03-15T11:42:43;8.10;;;3.92;;
37237;SDS011;23129;49.662;8.448;2023-03-15T11:45:19;10.82;;;4.82;;
37237;SDS011;23129;49.662;8.448;2023-03-15T11:48:19;5.88;;;3.40;;
37237;SDS011;23129;49.662;8.448;2023-03-15T11:53:24;2.25;;;2.05;;
37237;SDS011;23129;49.662;8.448;2023-03-15T11:56:02;2.25;;;2.05;;
37237;SDS011;23129;49.662;8.448;2023-03-15T11:59:00;2.85;;;2.40;;
37237;SDS011;23129;49.662;8.448;2023-03-15T12:01:34;2.97;;;2.40;;
37237;SDS011;23129;49.662;8.448;2023-03-15T12:07:04;2.92;;;2.63;;
37237;SDS011;23129;49.662;8.448;2023-03-15T12:09:51;2.30;;;2.10;;
37237;SDS011;23129;49.662;8.448;2023-03-15T12:12:34;4.43;;;2.58;;
37237;SDS011;23129;49.662;8.448;2023-03-15T12:18:15;3.30;;;2.08;;
37237;SDS011;23129;49.662;8.448;2023-03-15T12:20:56;5.93;;;3.35;;
37237;SDS011;23129;49.662;8.448;2023-03-15T12:23:47;5.20;;;3.10;;
37237;SDS011;23129;49.662;8.448;2023-03-15T12:26:40;5.95;;;3.50;;
37237;SDS011;23129;49.662;8.448;2023-03-15T12:29:16;8.18;;;4.03;;
37237;SDS011;23129;49.662;8.448;2023-03-15T12:31:50;3.50;;;3.20;;
37237;SDS011;23129;49.662;8.448;2023-03-15T12:34:24;3.20;;;2.95;;
37237;SDS011;23129;49.662;8.448;2023-03-15T12:37:04;4.28;;;3.40;;
37237;SDS011;23129;49.662;8.448;2023-03-15T12:39:37;3.67;;;2.78;;
37237;SDS011;23129;49.662;8.448;2023-03-15T12:42:29;3.33;;;2.90;;
37237;SDS011;23129;49.662;8.448;2023-03-15T12:51:03;3.38;;;2.60;;
37237;SDS011;23129;49.662;8.448;2023-03-15T12:53:46;3.83;;;2.83;;
37237;SDS011;23129;49.662;8.448;2023-03-15T12:59:21;3.42;;;2.75;;
37237;SDS011;23129;49.662;8.448;2023-03-15T13:01:59;5.90;;;3.45;;
37237;SDS011;23129;49.662;8.448;2023-03-15T13:04:30;3.85;;;3.15;;
37237;SDS011;23129;49.662;8.448;2023-03-15T13:07:05;3.67;;;2.70;;
37237;SDS011;23129;49.662;8.448;2023-03-15T13:12:53;6.75;;;2.83;;
37237;SDS011;23129;49.662;8.448;2023-03-15T13:15:32;4.63;;;2.85;;
37237;SDS011;23129;49.662;8.448;2023-03-15T13:18:10;3.67;;;2.00;;
37237;SDS011;23129;49.662;8.448;2023-03-15T13:20:51;5.60;;;2.60;;
37237;SDS011;23129;49.662;8.448;2023-03-15T13:23:32;6.78;;;2.30;;
37237;SDS011;23129;49.662;8.448;2023-03-15T13:26:12;4.88;;;2.30;;
37237;SDS011;23129;49.662;8.448;2023-03-15T13:28:53;5.18;;;2.75;;
37237;SDS011;23129;49.662;8.448;2023-03-15T13:31:30;3.53;;;2.17;;
37237;SDS011;23129;49.662;8.448;2023-03-15T13:34:02;3.55;;;2.50;;
37237;SDS011;23129;49.662;8.448;2023-03-15T13:36:41;3.75;;;2.47;;
37237;SDS011;23129;49.662;8.448;2023-03-15T13:39:17;2.45;;;2.25;;
37237;SDS011;23129;49.662;8.448;2023-03-15T13:41:48;5.28;;;2.53;;
37237;SDS011;23129;49.662;8.448;2023-03-15T13:44:24;2.55;;;2.35;;
37237;SDS011;23129;49.662;8.448;2023-03-15T13:46:56;3.40;;;2.65;;
37237;SDS011;23129;49.662;8.448;2023-03-15T13:49:29;8.32;;;3.05;;
37237;SDS011;23129;49.662;8.448;2023-03-15T13:51:59;6.20;;;2.17;;
37237;SDS011;23129;49.662;8.448;2023-03-15T13:54:32;2.95;;;2.65;;
37237;SDS011;23129;49.662;8.448;2023-03-15T13:57:02;3.00;;;1.95;;
37237;SDS011;23129;49.662;8.448;2023-03-15T13:59:36;24.42;;;8.93;;
37237;SDS011;23129;49.662;8.448;2023-03-15T14:02:11;6.10;;;3.90;;
37237;SDS011;23129;49.662;8.448;2023-03-15T14:04:45;2.65;;;1.77;;
37237;SDS011;23129;49.662;8.448;2023-03-15T14:07:22;2.10;;;1.40;;
37237;SDS011;23129;49.662;8.448;2023-03-15T14:10:18;0.60;;;0.60;;
37237;SDS011;23129;49.662;8.448;2023-03-15T14:12:52;2.95;;;0.57;;
37237;SDS011;23129;49.662;8.448;2023-03-15T14:15:23;1.23;;;0.60;;
37237;SDS011;23129;49.662;8.448;2023-03-15T14:17:58;0.60;;;0.60;;
37237;SDS011;23129;49.662;8.448;2023-03-15T14:23:02;1.58;;;0.60;;
37237;SDS011;23129;49.662;8.448;2023-03-15T14:25:35;1.90;;;0.73;;
37237;SDS011;23129;49.662;8.448;2023-03-15T14:28:04;1.25;;;1.20;;
37237;SDS011;23129;49.662;8.448;2023-03-15T14:30:39;1.25;;;1.13;;
37237;SDS011;23129;49.662;8.448;2023-03-15T14:33:22;1.17;;;0.88;;
37237;SDS011;23129;49.662;8.448;2023-03-15T14:35:56;0.68;;;0.65;;
37237;SDS011;23129;49.662;8.448;2023-03-15T14:38:30;0.82;;;0.82;;
37237;SDS011;23129;49.662;8.448;2023-03-15T14:41:18;1.55;;;0.93;;
37237;SDS011;23129;49.662;8.448;2023-03-15T14:43:58;0.88;;;0.77;;
37237;SDS011;23129;49.662;8.448;2023-03-15T14:46:29;0.75;;;0.73;;
37237;SDS011;23129;49.662;8.448;2023-03-15T14:48:59;1.30;;;0.80;;
37237;SDS011;23129;49.662;8.448;2023-03-15T14:51:28;4.00;;;0.45;;
37237;SDS011;23129;49.662;8.448;2023-03-15T14:53:58;0.50;;;0.35;;
37237;SDS011;23129;49.662;8.448;2023-03-15T14:56:26;0.52;;;0.52;;
37237;SDS011;23129;49.662;8.448;2023-03-15T14:58:55;0.63;;;0.60;;
37237;SDS011;23129;49.662;8.448;2023-03-15T15:01:24;1.23;;;0.32;;
37237;SDS011;23129;49.662;8.448;2023-03-15T15:03:54;0.90;;;0.47;;
37237;SDS011;23129;49.662;8.448;2023-03-15T15:06:29;0.25;;;0.25;;
37237;SDS011;23129;49.662;8.448;2023-03-15T15:08:58;0.32;;;0.30;;
37237;SDS011;23129;49.662;8.448;2023-03-15T15:11:27;0.30;;;0.30;;
37237;SDS011;23129;49.662;8.448;2023-03-15T15:13:56;0.50;;;0.50;;
37237;SDS011;23129;49.662;8.448;2023-03-15T15:16:25;0.40;;;0.40;;
37237;SDS011;23129;49.662;8.448;2023-03-15T15:18:54;0.52;;;0.52;;
37237;SDS011;23129;49.662;8.448;2023-03-15T15:21:23;1.30;;;1.02;;
37237;SDS011;23129;49.662;8.448;2023-03-15T15:24:01;3.55;;;0.93;;
37237;SDS011;23129;49.662;8.448;2023-03-15T15:26:31;0.70;;;0.60;;
37237;SDS011;23129;49.662;8.448;2023-03-15T15:28:59;0.73;;;0.65;;
37237;SDS011;23129;49.662;8.448;2023-03-15T15:31:28;1.23;;;0.80;;
37237;SDS011;23129;49.662;8.448;2023-03-15T15:33:59;39.67;;;4.53;;
37237;SDS011;23129;49.662;8.448;2023-03-15T15:36:28;6.50;;;2.28;;
37237;SDS011;23129;49.662;8.448;2023-03-15T15:39:01;1.08;;;0.77;;
37237;SDS011;23129;49.662;8.448;2023-03-15T15:41:32;1.75;;;0.90;;
37237;SDS011;23129;49.662;8.448;2023-03-15T15:44:01;1.08;;;0.70;;
37237;SDS011;23129;49.662;8.448;2023-03-15T15:46:30;1.40;;;0.60;;
37237;SDS011;23129;49.662;8.448;2023-03-15T15:48:58;0.85;;;0.70;;
37237;SDS011;23129;49.662;8.448;2023-03-15T15:51:27;1.35;;;1.08;;
37237;SDS011;23129;49.662;8.448;2023-03-15T15:53:58;2.05;;;0.60;;
37237;SDS011;23129;49.662;8.448;2023-03-15T15:56:29;0.65;;;0.65;;
37237;SDS011;23129;49.662;8.448;2023-03-15T15:59:00;2.60;;;1.60;;
37237;SDS011;23129;49.662;8.448;2023-03-15T16:01:30;2.55;;;1.23;;